Time,TemperatureF,DewpointF,PressureIn,WindDirection,WindDirectionDegrees,WindSpeedMPH,WindSpeedGustMPH,Humidity,HourlyPrecipIn,Conditions,Clouds,dailyrainin,SoftwareType,DateUTC
2013-05-10 00:01:00,56.5,50.1,29.92,SW,221,4.0,4.9,79,0.00,,SCT250,0.12,VWS V14.01,2013-05-10 04:01:00,
2013-05-10 00:02:00,56.5,50.4,29.92,SW,224,4.0,4.9,80,0.00,,SCT250,0.00,VWS V14.01,2013-05-10 04:02:00,
2013-05-10 00:03:00,56.5,50.4,29.92,SW,236,3.1,4.0,80,0.00,,SCT250,0.00,VWS V14.01,2013-05-10 04:03:00,
2013-05-10 00:07:00,56.1,49.7,29.92,SW,226,3.1,4.0,79,0.00,,SCT250,0.00,VWS V14.01,2013-05-10 04:07:00,
2013-05-10 00:11:00,56.1,50.0,29.92,SW,225,3.1,4.9,80,0.00,,SCT250,0.00,VWS V14.01,2013-05-10 04:11:00,
2013-05-10 00:16:00,56.3,50.2,29.92,SW,231,3.6,4.0,80,0.00,,SCT250,0.00,VWS V14.01,2013-05-10 04:16:00,
2013-05-10 00:21:00,55.9,49.9,29.92,WSW,245,2.7,4.0,80,0.00,,SCT250,0.00,VWS V14.01,2013-05-10 04:21:00,
2013-05-10 00:26:00,56.1,50.4,29.92,SW,224,3.6,4.0,81,0.00,,SCT250,0.00,VWS V14.01,2013-05-10 04:26:00,
2013-05-10 00:31:00,56.3,50.5,29.92,SW,224,2.7,4.0,81,0.00,,SCT250,0.00,VWS V14.01,2013-05-10 04:31:00,
2013-05-10 00:36:00,55.6,49.5,29.92,SW,224,2.7,4.0,80,0.00,,FEW250,0.00,VWS V14.01,2013-05-10 04:36:00,
2013-05-10 00:41:00,55.6,49.5,29.92,SW,219,3.1,4.9,80,0.00,,FEW250,0.00,VWS V14.01,2013-05-10 04:41:00,
2013-05-10 00:46:00,54.9,48.5,29.92,SW,223,3.6,4.9,79,0.00,,FEW250,0.00,VWS V14.01,2013-05-10 04:46:00,
2013-05-10 00:51:00,54.7,48.6,29.92,SW,220,2.7,4.9,80,0.00,,FEW250,0.00,VWS V14.01,2013-05-10 04:51:00,
2013-05-10 00:56:00,54.7,48.6,29.92,SW,235,2.7,4.9,80,0.00,,FEW250,0.00,VWS V14.01,2013-05-10 04:56:00,
2013-05-10 01:01:00,54.9,49.2,29.92,WSW,246,2.2,5.4,81,0.00,,FEW250,0.00,VWS V14.01,2013-05-10 05:01:00,
2013-05-10 01:06:00,55.0,49.7,29.89,SW,218,2.7,5.8,82,0.00,,FEW250,0.00,VWS V14.01,2013-05-10 05:06:00,
2013-05-10 01:11:00,54.7,49.3,29.89,SW,230,3.6,4.0,82,0.00,,FEW250,0.00,VWS V14.01,2013-05-10 05:11:00,
2013-05-10 01:16:00,54.9,49.5,29.89,SW,236,3.6,5.8,82,0.00,,FEW250,0.00,VWS V14.01,2013-05-10 05:16:00,
2013-05-10 01:21:00,55.2,50.2,29.89,SW,218,4.0,4.0,83,0.00,,FEW250,0.00,VWS V14.01,2013-05-10 05:21:00,
2013-05-10 01:26:00,55.0,50.0,29.89,SSW,212,4.0,4.9,83,0.00,,FEW250,0.00,VWS V14.01,2013-05-10 05:26:00,
2013-05-10 01:31:00,55.4,50.3,29.89,SW,234,3.1,4.0,83,0.00,,FEW250,0.00,VWS V14.01,2013-05-10 05:31:00,
2013-05-10 01:36:00,55.4,50.3,29.89,SW,228,3.6,5.4,83,0.00,,SCT250,0.00,VWS V14.01,2013-05-10 05:36:00,
2013-05-10 01:41:00,55.4,50.3,29.89,SSW,211,4.0,5.4,83,0.00,,SCT250,0.00,VWS V14.01,2013-05-10 05:41:00,
2013-05-10 01:46:00,55.2,49.8,29.89,SW,225,3.1,4.9,82,0.00,,SCT250,0.00,VWS V14.01,2013-05-10 05:46:00,
2013-05-10 01:52:00,55.2,49.8,29.89,SW,225,2.7,4.9,82,0.00,,SCT250,0.00,VWS V14.01,2013-05-10 05:52:00,
2013-05-10 01:57:00,54.7,49.3,29.89,SW,222,3.1,4.0,82,0.00,,SCT250,0.00,VWS V14.01,2013-05-10 05:57:00,
2013-05-10 02:02:00,55.0,49.7,29.89,SW,231,5.8,5.8,82,0.00,,SCT250,0.00,VWS V14.01,2013-05-10 06:02:00,
2013-05-10 02:07:00,55.0,50.0,29.89,SW,226,3.6,5.8,83,0.00,,SCT250,0.00,VWS V14.01,2013-05-10 06:07:00,
2013-05-10 02:12:00,54.9,49.5,29.89,SW,214,2.7,4.0,82,0.00,,SCT250,0.00,VWS V14.01,2013-05-10 06:12:00,
2013-05-10 02:17:00,54.9,49.5,29.89,SSW,205,4.0,5.8,82,0.00,,SCT250,0.00,VWS V14.01,2013-05-10 06:17:00,
2013-05-10 02:22:00,54.9,49.5,29.89,SW,214,4.9,5.8,82,0.00,,SCT250,0.00,VWS V14.01,2013-05-10 06:22:00,
2013-05-10 02:27:00,54.9,49.5,29.89,WSW,238,4.0,5.8,82,0.00,,SCT250,0.00,VWS V14.01,2013-05-10 06:27:00,
2013-05-10 02:32:00,54.9,49.5,29.89,SW,217,3.1,5.8,82,0.00,,SCT250,0.00,VWS V14.01,2013-05-10 06:32:00,
2013-05-10 02:37:00,54.7,49.3,29.89,SW,231,3.6,5.4,82,0.00,,BKN250,0.00,VWS V14.01,2013-05-10 06:37:00,
2013-05-10 02:42:00,54.7,49.3,29.89,SW,219,4.9,5.8,82,0.00,,BKN250,0.00,VWS V14.01,2013-05-10 06:42:00,
2013-05-10 02:47:00,54.7,49.3,29.89,SW,218,2.7,5.8,82,0.00,,BKN250,0.00,VWS V14.01,2013-05-10 06:47:00,
2013-05-10 02:52:00,54.7,49.3,29.89,WSW,237,3.6,3.6,82,0.00,,BKN250,0.00,VWS V14.01,2013-05-10 06:52:00,
2013-05-10 02:57:00,54.7,49.3,29.89,SW,228,4.0,5.4,82,0.00,,BKN250,0.00,VWS V14.01,2013-05-10 06:57:00,
2013-05-10 03:02:00,54.5,49.1,29.89,SW,223,4.0,4.0,82,0.00,,BKN250,0.00,VWS V14.01,2013-05-10 07:02:00,
2013-05-10 03:07:00,54.5,49.1,29.86,WSW,249,4.0,4.0,82,0.00,,BKN250,0.00,VWS V14.01,2013-05-10 07:07:00,
2013-05-10 03:12:00,54.5,48.8,29.86,SW,227,5.8,5.8,81,0.00,,BKN250,0.00,VWS V14.01,2013-05-10 07:12:00,
2013-05-10 03:17:00,54.5,49.1,29.86,SW,227,3.6,4.0,82,0.00,,BKN250,0.00,VWS V14.01,2013-05-10 07:17:00,
2013-05-10 03:22:00,54.5,48.8,29.86,WSW,237,4.0,4.0,81,0.00,,BKN250,0.00,VWS V14.01,2013-05-10 07:22:00,
2013-05-10 03:27:00,54.1,48.5,29.86,SW,226,3.6,4.0,81,0.00,,BKN250,0.00,VWS V14.01,2013-05-10 07:27:00,
2013-05-10 03:32:00,54.3,48.6,29.86,SW,218,5.4,5.8,81,0.00,,SCT250,0.00,VWS V14.01,2013-05-10 07:32:00,
2013-05-10 03:37:00,54.3,48.6,29.89,SW,217,5.4,6.3,81,0.00,,SCT250,0.00,VWS V14.01,2013-05-10 07:37:00,
2013-05-10 03:42:00,54.5,48.8,29.89,SSW,212,4.0,5.8,81,0.00,,SCT250,0.00,VWS V14.01,2013-05-10 07:42:00,
2013-05-10 03:47:00,54.5,48.8,29.89,SW,220,4.9,6.3,81,0.00,,SCT250,0.00,VWS V14.01,2013-05-10 07:47:00,
2013-05-10 03:52:00,54.5,48.5,29.89,SW,219,4.9,6.3,80,0.00,,SCT250,0.00,VWS V14.01,2013-05-10 07:52:00,
2013-05-10 03:57:00,54.5,48.1,29.89,SW,224,4.5,5.4,79,0.00,,SCT250,0.00,VWS V14.01,2013-05-10 07:57:00,
2013-05-10 04:02:00,54.5,48.1,29.89,SSW,204,3.6,4.9,79,0.00,,SCT250,0.00,VWS V14.01,2013-05-10 08:02:00,
2013-05-10 04:07:00,54.3,47.6,29.89,SSW,212,4.0,4.9,78,0.00,,SCT250,0.00,VWS V14.01,2013-05-10 08:07:00,
2013-05-10 04:12:00,54.3,47.6,29.89,SW,234,4.0,4.9,78,0.00,,SCT250,0.00,VWS V14.01,2013-05-10 08:12:00,
2013-05-10 04:17:00,54.3,47.6,29.89,SW,216,4.0,5.4,78,0.00,,SCT250,0.00,VWS V14.01,2013-05-10 08:17:00,
2013-05-10 04:22:00,54.3,47.3,29.89,SW,232,4.5,5.8,77,0.00,,SCT250,0.00,VWS V14.01,2013-05-10 08:22:00,
2013-05-10 04:27:00,54.1,47.1,29.89,SW,219,4.0,5.4,77,0.00,,SCT250,0.00,VWS V14.01,2013-05-10 08:27:00,
2013-05-10 04:32:00,54.0,46.9,29.89,SW,222,4.0,4.0,77,0.00,,SCT250,0.00,VWS V14.01,2013-05-10 08:32:00,
2013-05-10 04:37:00,53.2,45.9,29.86,SW,223,4.0,4.0,76,0.00,,SCT250,0.00,VWS V14.01,2013-05-10 08:37:00,
2013-05-10 04:42:00,52.9,45.5,29.86,SW,220,2.7,4.0,76,0.00,,SCT250,0.00,VWS V14.01,2013-05-10 08:42:00,
2013-05-10 04:47:00,52.9,45.5,29.86,SW,216,4.0,4.0,76,0.00,,SCT250,0.00,VWS V14.01,2013-05-10 08:47:00,
2013-05-10 04:52:00,53.1,46.0,29.86,SW,214,4.0,4.0,77,0.00,,SCT250,0.00,VWS V14.01,2013-05-10 08:52:00,
2013-05-10 04:57:00,53.4,46.4,29.86,SW,221,4.0,4.0,77,0.00,,SCT250,0.00,VWS V14.01,2013-05-10 08:57:00,
2013-05-10 05:02:00,53.4,46.4,29.86,SW,229,4.0,4.9,77,0.00,,SCT250,0.00,VWS V14.01,2013-05-10 09:02:00,
2013-05-10 05:07:00,53.2,46.2,29.86,SW,222,4.0,5.4,77,0.00,,SCT250,0.00,VWS V14.01,2013-05-10 09:07:00,
2013-05-10 05:12:00,53.4,46.1,29.86,SW,224,5.4,5.4,76,0.00,,SCT250,0.00,VWS V14.01,2013-05-10 09:12:00,
2013-05-10 05:17:00,53.6,46.2,29.86,SW,230,3.6,7.2,76,0.00,,SCT250,0.00,VWS V14.01,2013-05-10 09:17:00,
2013-05-10 05:23:00,53.6,45.9,29.86,SW,222,4.0,6.3,75,0.00,,SCT250,0.00,VWS V14.01,2013-05-10 09:23:00,
2013-05-10 05:28:00,53.6,45.9,29.86,SW,215,4.0,4.9,75,0.00,,SCT250,0.00,VWS V14.01,2013-05-10 09:28:00,
2013-05-10 05:33:00,53.2,45.5,29.86,SW,224,3.6,4.0,75,0.00,,SCT250,0.00,VWS V14.01,2013-05-10 09:33:00,
2013-05-10 05:38:00,52.9,45.2,29.86,SW,228,3.6,4.0,75,0.00,,SCT250,0.00,VWS V14.01,2013-05-10 09:38:00,
2013-05-10 05:43:00,52.7,44.7,29.86,SW,221,3.1,3.1,74,0.00,,SCT250,0.00,VWS V14.01,2013-05-10 09:43:00,
2013-05-10 05:48:00,52.5,44.8,29.86,SSW,208,0.0,0.0,75,0.00,,SCT250,0.00,VWS V14.01,2013-05-10 09:48:00,
2013-05-10 05:53:00,52.7,45.4,29.86,SSW,208,2.7,2.7,76,0.00,,SCT250,0.00,VWS V14.01,2013-05-10 09:53:00,
2013-05-10 05:58:00,52.7,45.4,29.86,NE,46,2.2,2.2,76,0.00,,SCT250,0.00,VWS V14.01,2013-05-10 09:58:00,
2013-05-10 06:03:00,52.3,45.0,29.86,NE,46,0.0,0.0,76,0.00,,SCT250,0.00,VWS V14.01,2013-05-10 10:03:00,
2013-05-10 06:08:00,52.3,45.0,29.86,NE,46,0.0,0.0,76,0.00,,SCT250,0.00,VWS V14.01,2013-05-10 10:08:00,
2013-05-10 06:13:00,52.3,45.3,29.86,NE,46,2.7,2.7,77,0.00,,SCT250,0.00,VWS V14.01,2013-05-10 10:13:00,
2013-05-10 06:18:00,52.3,45.3,29.86,NE,46,0.0,0.0,77,0.00,,SCT250,0.00,VWS V14.01,2013-05-10 10:18:00,
2013-05-10 06:23:00,52.5,45.5,29.86,NE,46,2.7,3.6,77,0.00,,SCT250,0.00,VWS V14.01,2013-05-10 10:23:00,
2013-05-10 06:28:00,52.5,45.9,29.86,ENE,65,0.0,3.6,78,0.00,,SCT250,0.00,VWS V14.01,2013-05-10 10:28:00,
2013-05-10 06:33:00,52.5,45.9,29.86,South,184,0.0,0.0,78,0.00,,SCT250,0.00,VWS V14.01,2013-05-10 10:33:00,
2013-05-10 06:38:00,52.5,46.2,29.86,North,7,3.1,3.1,79,0.00,,SCT250,0.00,VWS V14.01,2013-05-10 10:38:00,
2013-05-10 06:43:00,52.7,46.4,29.86,NNE,29,0.0,0.0,79,0.00,,SCT250,0.00,VWS V14.01,2013-05-10 10:43:00,
2013-05-10 06:48:00,52.5,46.2,29.86,NNE,29,0.0,0.0,79,0.00,,SCT250,0.00,VWS V14.01,2013-05-10 10:48:00,
2013-05-10 06:53:00,52.5,46.2,29.89,NNE,29,0.0,0.0,79,0.00,,SCT250,0.00,VWS V14.01,2013-05-10 10:53:00,
2013-05-10 06:58:00,52.5,46.2,29.89,NNE,29,0.0,0.0,79,0.00,,SCT250,0.00,VWS V14.01,2013-05-10 10:58:00,
2013-05-10 07:03:00,52.5,46.2,29.89,NNE,29,0.0,0.0,79,0.00,,BKN250,0.00,VWS V14.01,2013-05-10 11:03:00,
2013-05-10 07:08:00,53.1,47.4,29.86,NNE,29,0.0,0.0,81,0.00,,BKN250,0.00,VWS V14.01,2013-05-10 11:08:00,
2013-05-10 07:13:00,53.8,48.4,29.86,NNE,29,0.0,0.0,82,0.00,,BKN250,0.00,VWS V14.01,2013-05-10 11:13:00,
2013-05-10 07:18:00,54.5,49.5,29.86,NNE,29,0.0,0.0,83,0.00,,BKN250,0.00,VWS V14.01,2013-05-10 11:18:00,
2013-05-10 07:23:00,55.2,50.2,29.86,NNE,29,0.0,0.0,83,0.00,,BKN250,0.00,VWS V14.01,2013-05-10 11:23:00,
2013-05-10 07:28:00,55.8,50.7,29.86,NNE,29,0.0,0.0,83,0.00,,BKN250,0.00,VWS V14.01,2013-05-10 11:28:00,
2013-05-10 07:33:00,55.9,50.9,29.86,NNE,29,0.0,0.0,83,0.00,,BKN250,0.00,VWS V14.01,2013-05-10 11:33:00,
2013-05-10 07:38:00,56.1,50.4,29.86,NNE,29,0.0,0.0,81,0.00,,BKN250,0.00,VWS V14.01,2013-05-10 11:38:00,
2013-05-10 07:43:00,56.5,50.4,29.86,NNE,29,0.0,0.0,80,0.00,,BKN250,0.00,VWS V14.01,2013-05-10 11:43:00,
2013-05-10 07:48:00,56.7,50.2,29.86,NNE,29,0.0,0.0,79,0.00,,BKN250,0.00,VWS V14.01,2013-05-10 11:48:00,
2013-05-10 07:53:00,56.8,50.4,29.86,NNE,29,0.0,0.0,79,0.00,,BKN250,0.00,VWS V14.01,2013-05-10 11:53:00,
2013-05-10 07:58:00,56.8,50.4,29.86,NNE,29,0.0,0.0,79,0.00,,BKN250,0.00,VWS V14.01,2013-05-10 11:58:00,
2013-05-10 08:03:00,57.2,50.8,29.86,NNE,29,0.0,0.0,79,0.00,,BKN250,0.00,VWS V14.01,2013-05-10 12:03:00,
2013-05-10 08:08:00,57.2,50.4,29.89,NNE,29,0.0,2.2,78,0.00,,BKN250,0.00,VWS V14.01,2013-05-10 12:08:00,
2013-05-10 08:13:00,57.6,50.8,29.89,NNE,29,2.2,2.7,78,0.00,,BKN250,0.00,VWS V14.01,2013-05-10 12:13:00,
2013-05-10 08:19:00,57.6,50.8,29.89,NNE,29,0.0,0.0,78,0.00,,BKN250,0.00,VWS V14.01,2013-05-10 12:19:00,
2013-05-10 08:24:00,57.9,51.5,29.86,NNE,29,2.7,3.1,79,0.00,,BKN250,0.00,VWS V14.01,2013-05-10 12:24:00,
2013-05-10 08:29:00,58.3,51.8,29.86,NE,48,3.1,4.0,79,0.00,,BKN250,0.00,VWS V14.01,2013-05-10 12:29:00,
2013-05-10 08:34:00,58.6,52.2,29.86,ENE,76,3.1,4.0,79,0.00,,OVC250,0.00,VWS V14.01,2013-05-10 12:34:00,
2013-05-10 08:39:00,59.0,51.8,29.86,NE,48,4.0,4.9,77,0.00,,OVC250,0.00,VWS V14.01,2013-05-10 12:39:00,
2013-05-10 08:44:00,59.2,52.0,29.86,ENE,71,2.7,4.0,77,0.00,,OVC250,0.00,VWS V14.01,2013-05-10 12:44:00,
2013-05-10 08:49:00,59.4,52.2,29.86,ENE,75,3.1,3.6,77,0.00,,OVC250,0.00,VWS V14.01,2013-05-10 12:49:00,
2013-05-10 08:54:00,59.7,51.8,29.86,ENE,73,2.2,3.1,75,0.00,,OVC250,0.00,VWS V14.01,2013-05-10 12:54:00,
2013-05-10 08:59:00,59.7,51.8,29.86,ENE,72,2.2,2.7,75,0.00,,OVC250,0.00,VWS V14.01,2013-05-10 12:59:00,
2013-05-10 09:04:00,59.9,51.6,29.86,East,79,0.0,2.7,74,0.00,,OVC250,0.00,VWS V14.01,2013-05-10 13:04:00,
2013-05-10 09:09:00,60.1,52.1,29.86,East,79,0.0,0.0,75,0.00,,OVC250,0.00,VWS V14.01,2013-05-10 13:09:00,
2013-05-10 09:14:00,60.4,52.1,29.86,ENE,73,4.0,4.0,74,0.00,,OVC250,0.00,VWS V14.01,2013-05-10 13:14:00,
2013-05-10 09:19:00,60.4,51.8,29.86,ENE,73,3.1,4.0,73,0.00,,OVC250,0.00,VWS V14.01,2013-05-10 13:19:00,
2013-05-10 09:24:00,60.6,52.3,29.86,NE,47,3.1,3.6,74,0.00,,OVC250,0.00,VWS V14.01,2013-05-10 13:24:00,
2013-05-10 09:29:00,60.8,52.5,29.86,East,84,4.0,4.0,74,0.00,,OVC250,0.00,VWS V14.01,2013-05-10 13:29:00,
2013-05-10 09:34:00,61.0,52.3,29.86,ENE,71,2.7,4.9,73,0.00,,OVC250,0.00,VWS V14.01,2013-05-10 13:34:00,
2013-05-10 09:39:00,61.2,52.5,29.86,ESE,106,4.0,4.0,73,0.00,,OVC250,0.00,VWS V14.01,2013-05-10 13:39:00,
2013-05-10 09:44:00,61.2,52.1,29.86,East,93,3.6,4.0,72,0.00,,OVC250,0.00,VWS V14.01,2013-05-10 13:44:00,
2013-05-10 09:49:00,61.0,51.9,29.86,ESE,104,0.0,0.0,72,0.00,,OVC250,0.00,VWS V14.01,2013-05-10 13:49:00,
2013-05-10 09:54:00,61.0,51.9,29.86,ESE,104,0.0,0.0,72,0.00,,OVC250,0.00,VWS V14.01,2013-05-10 13:54:00,
2013-05-10 09:59:00,61.0,52.3,29.86,ESE,104,0.0,0.0,73,0.00,,OVC250,0.00,VWS V14.01,2013-05-10 13:59:00,
2013-05-10 10:04:00,61.0,51.9,29.86,East,89,0.0,0.0,72,0.00,, +RA,0.00,VWS V14.01,2013-05-10 14:04:00,
2013-05-10 10:09:00,61.0,51.9,29.86,SSE,147,0.0,4.0,72,0.00,, +RA,0.00,VWS V14.01,2013-05-10 14:09:00,
2013-05-10 10:14:00,61.2,52.1,29.86,SSE,147,0.0,2.7,72,0.00,, +RA,0.00,VWS V14.01,2013-05-10 14:14:00,
2013-05-10 10:19:00,61.5,52.4,29.86,SW,224,2.2,2.7,72,0.00,, +RA,0.00,VWS V14.01,2013-05-10 14:19:00,
2013-05-10 10:24:00,61.9,52.4,29.86,SW,221,10.5,13.2,71,0.00,, +RA,0.00,VWS V14.01,2013-05-10 14:24:00,
2013-05-10 10:29:00,61.5,51.3,29.86,SW,220,8.1,13.2,69,0.00,, +RA,0.00,VWS V14.01,2013-05-10 14:29:00,
2013-05-10 10:34:00,61.2,51.3,29.86,WSW,239,5.8,8.1,70,0.00,,-RA,0.00,VWS V14.01,2013-05-10 14:34:00,
2013-05-10 10:39:00,60.8,51.7,29.86,SSW,211,3.6,5.8,72,0.04,,-RA,0.04,VWS V14.01,2013-05-10 14:39:00,
2013-05-10 10:44:00,60.6,51.9,29.86,SW,217,3.1,5.8,73,0.04,,-RA,0.04,VWS V14.01,2013-05-10 14:44:00,
2013-05-10 10:49:00,60.4,53.2,29.86,WSW,257,2.2,5.4,77,0.04,,-RA,0.04,VWS V14.01,2013-05-10 14:49:00,
2013-05-10 10:54:00,60.4,53.6,29.86,SW,236,2.7,4.0,78,0.04,,-RA,0.04,VWS V14.01,2013-05-10 14:54:00,
2013-05-10 10:59:00,60.4,53.6,29.86,WSW,245,0.0,3.6,78,0.04,,-RA,0.04,VWS V14.01,2013-05-10 14:59:00,
2013-05-10 11:04:00,60.3,53.4,29.86,SW,232,2.7,4.0,78,0.04,,-RA,0.04,VWS V14.01,2013-05-10 15:04:00,
2013-05-10 11:09:00,60.4,54.2,29.86,SW,232,2.2,3.6,80,0.04,,-RA,0.04,VWS V14.01,2013-05-10 15:09:00,
2013-05-10 11:14:00,60.4,54.2,29.86,SW,223,3.1,4.0,80,0.04,,-RA,0.04,VWS V14.01,2013-05-10 15:14:00,
2013-05-10 11:19:00,60.4,54.2,29.86,SW,216,0.0,2.7,80,0.04,,-RA,0.04,VWS V14.01,2013-05-10 15:19:00,
2013-05-10 11:24:00,60.4,54.2,29.86,SSW,211,2.7,2.7,80,0.04,,-RA,0.04,VWS V14.01,2013-05-10 15:24:00,
2013-05-10 11:29:00,60.4,54.6,29.86,SW,227,0.0,3.1,81,0.04,,-RA,0.04,VWS V14.01,2013-05-10 15:29:00,
2013-05-10 11:34:00,60.4,54.6,29.86,South,178,2.7,3.6,81,0.04,,-RA,0.04,VWS V14.01,2013-05-10 15:34:00,
2013-05-10 11:39:00,60.4,54.6,29.86,South,175,2.7,3.6,81,0.04,,-RA,0.04,VWS V14.01,2013-05-10 15:39:00,
2013-05-10 11:45:00,60.4,54.6,29.86,South,175,0.0,0.0,81,0.00,,-RA,0.04,VWS V14.01,2013-05-10 15:45:00,
2013-05-10 11:50:00,60.4,54.9,29.86,South,175,0.0,0.0,82,0.00,,-RA,0.04,VWS V14.01,2013-05-10 15:50:00,
2013-05-10 11:55:00,60.4,54.9,29.86,South,175,0.0,0.0,82,0.00,,-RA,0.04,VWS V14.01,2013-05-10 15:55:00,
2013-05-10 12:00:00,60.4,55.3,29.86,South,175,0.0,0.0,83,0.00,,-RA,0.04,VWS V14.01,2013-05-10 16:00:00,
2013-05-10 12:05:00,60.6,55.8,29.86,ESE,117,3.1,3.1,84,0.00,,-RA,0.04,VWS V14.01,2013-05-10 16:05:00,
2013-05-10 12:10:00,60.8,56.3,29.83,ESE,103,5.8,5.8,85,0.00,,-RA,0.04,VWS V14.01,2013-05-10 16:10:00,
2013-05-10 12:15:00,61.0,56.1,29.83,ESE,109,3.6,4.0,84,0.00,,-RA,0.04,VWS V14.01,2013-05-10 16:15:00,
2013-05-10 12:20:00,61.2,56.3,29.83,ENE,57,3.6,4.0,84,0.00,,-RA,0.04,VWS V14.01,2013-05-10 16:20:00,
2013-05-10 12:25:00,61.3,56.5,29.83,NE,40,3.6,5.8,84,0.00,,-RA,0.04,VWS V14.01,2013-05-10 16:25:00,
2013-05-10 12:30:00,62.4,57.9,29.83,ESE,119,5.8,5.8,85,0.00,,-RA,0.04,VWS V14.01,2013-05-10 16:30:00,
2013-05-10 12:35:00,63.3,59.4,29.83,SSE,152,4.0,8.1,87,0.00,,-RA,0.04,VWS V14.01,2013-05-10 16:35:00,
2013-05-10 12:40:00,63.9,59.3,29.83,SSE,150,8.7,10.1,85,0.00,,-RA,0.04,VWS V14.01,2013-05-10 16:40:00,
2013-05-10 12:45:00,63.9,57.9,29.83,ESE,108,4.9,10.1,81,0.00,,-RA,0.04,VWS V14.01,2013-05-10 16:45:00,
2013-05-10 12:50:00,64.4,58.1,29.83,SSE,156,7.6,11.0,80,0.00,,-RA,0.04,VWS V14.01,2013-05-10 16:50:00,
2013-05-10 12:55:00,64.8,58.1,29.83,ENE,76,4.9,8.3,79,0.00,,-RA,0.04,VWS V14.01,2013-05-10 16:55:00,
2013-05-10 13:00:00,65.5,58.5,29.83,SE,143,4.0,6.3,78,0.00,,-RA,0.04,VWS V14.01,2013-05-10 17:00:00,
2013-05-10 13:05:00,66.2,59.5,29.83,SE,129,4.9,10.1,79,0.00,,BKN250,0.04,VWS V14.01,2013-05-10 17:05:00,
2013-05-10 13:10:00,66.6,59.5,29.80,East,93,5.8,8.3,78,0.00,,BKN250,0.04,VWS V14.01,2013-05-10 17:10:00,
2013-05-10 13:15:00,66.6,58.4,29.80,SSE,165,5.8,8.7,75,0.00,,BKN250,0.04,VWS V14.01,2013-05-10 17:15:00,
2013-05-10 13:20:00,67.3,59.8,29.80,SW,216,3.6,8.3,77,0.00,,BKN250,0.04,VWS V14.01,2013-05-10 17:20:00,
2013-05-10 13:25:00,67.6,59.8,29.80,South,173,4.0,8.7,76,0.00,,BKN250,0.04,VWS V14.01,2013-05-10 17:25:00,
2013-05-10 13:30:00,68.2,59.6,29.80,SSE,167,9.2,9.2,74,0.00,,BKN250,0.04,VWS V14.01,2013-05-10 17:30:00,
2013-05-10 13:35:00,68.5,59.9,29.80,SE,146,4.9,10.1,74,0.00,,OVC250,0.04,VWS V14.01,2013-05-10 17:35:00,
2013-05-10 13:40:00,68.4,59.0,29.80,South,183,4.9,8.3,72,0.00,,OVC250,0.04,VWS V14.01,2013-05-10 17:40:00,
2013-05-10 13:45:00,68.0,57.9,29.80,South,172,8.1,8.3,70,0.00,,OVC250,0.04,VWS V14.01,2013-05-10 17:45:00,
2013-05-10 13:50:00,68.0,57.5,29.80,South,178,4.0,11.0,69,0.00,,OVC250,0.04,VWS V14.01,2013-05-10 17:50:00,
2013-05-10 13:55:00,68.4,58.6,29.80,South,170,7.2,8.7,71,0.00,,OVC250,0.04,VWS V14.01,2013-05-10 17:55:00,
2013-05-10 14:00:00,68.7,58.5,29.80,SSE,147,4.0,7.6,70,0.00,,OVC250,0.04,VWS V14.01,2013-05-10 18:00:00,
2013-05-10 14:05:00,68.7,58.5,29.80,SSE,154,5.4,8.1,70,0.00,,OVC250,0.04,VWS V14.01,2013-05-10 18:05:00,
2013-05-10 14:10:00,68.7,58.5,29.80,SSE,168,4.9,5.4,70,0.00,,OVC250,0.04,VWS V14.01,2013-05-10 18:10:00,
2013-05-10 14:15:00,68.5,58.4,29.80,SSE,148,4.0,6.3,70,0.00,,OVC250,0.04,VWS V14.01,2013-05-10 18:15:00,
2013-05-10 14:20:00,68.4,58.2,29.80,SSE,148,5.4,5.8,70,0.00,,OVC250,0.04,VWS V14.01,2013-05-10 18:20:00,
2013-05-10 14:25:00,68.4,58.6,29.80,SE,143,2.2,5.4,71,0.00,,OVC250,0.04,VWS V14.01,2013-05-10 18:25:00,
2013-05-10 14:30:00,68.4,58.2,29.80,SSW,193,5.4,7.6,70,0.00,,OVC250,0.04,VWS V14.01,2013-05-10 18:30:00,
2013-05-10 14:36:00,68.4,58.2,29.78,SSW,201,3.1,5.4,70,0.00,,OVC250,0.04,VWS V14.01,2013-05-10 18:36:00,
2013-05-10 14:41:00,68.4,58.6,29.78,South,170,2.7,3.6,71,0.00,,OVC250,0.04,VWS V14.01,2013-05-10 18:41:00,
2013-05-10 14:46:00,68.9,59.1,29.78,South,171,5.8,5.8,71,0.00,,OVC250,0.04,VWS V14.01,2013-05-10 18:46:00,
2013-05-10 14:51:00,69.6,59.8,29.78,SSW,206,2.7,5.4,71,0.00,,OVC250,0.04,VWS V14.01,2013-05-10 18:51:00,
2013-05-10 14:56:00,69.8,59.2,29.78,South,175,3.1,4.9,69,0.00,,OVC250,0.04,VWS V14.01,2013-05-10 18:56:00,
2013-05-10 15:01:00,69.8,58.8,29.78,SSE,166,6.3,6.3,68,0.00,,OVC250,0.04,VWS V14.01,2013-05-10 19:01:00,
2013-05-10 15:06:00,69.8,58.4,29.78,SSW,192,3.1,5.8,67,0.00,,OVC200,0.04,VWS V14.01,2013-05-10 19:06:00,
2013-05-10 15:11:00,70.2,58.7,29.78,SSE,156,0.0,4.9,67,0.00,,OVC200,0.04,VWS V14.01,2013-05-10 19:11:00,
2013-05-10 15:16:00,70.7,59.6,29.78,SSW,212,6.3,6.3,68,0.00,,OVC200,0.04,VWS V14.01,2013-05-10 19:16:00,
2013-05-10 15:21:00,71.4,59.9,29.75,South,177,4.0,8.1,67,0.00,,OVC200,0.04,VWS V14.01,2013-05-10 19:21:00,
2013-05-10 15:26:00,72.1,58.0,29.75,SSW,208,8.3,12.3,61,0.00,,OVC200,0.04,VWS V14.01,2013-05-10 19:26:00,
2013-05-10 15:31:00,71.8,55.8,29.75,South,183,5.4,12.3,57,0.00,,OVC200,0.04,VWS V14.01,2013-05-10 19:31:00,
2013-05-10 15:36:00,71.8,54.8,29.75,South,190,7.6,12.3,55,0.00,,OVC250,0.04,VWS V14.01,2013-05-10 19:36:00,
2013-05-10 15:41:00,72.3,56.2,29.75,South,189,5.8,10.5,57,0.00,,OVC250,0.04,VWS V14.01,2013-05-10 19:41:00,
2013-05-10 15:46:00,72.3,55.8,29.75,SSW,209,9.2,9.2,56,0.00,,OVC250,0.04,VWS V14.01,2013-05-10 19:46:00,
2013-05-10 15:51:00,72.1,55.1,29.75,SW,234,6.3,11.0,55,0.00,,OVC250,0.04,VWS V14.01,2013-05-10 19:51:00,
2013-05-10 15:56:00,72.0,54.9,29.75,SSW,210,5.8,11.0,55,0.00,,OVC250,0.04,VWS V14.01,2013-05-10 19:56:00,
2013-05-10 16:01:00,71.8,55.8,29.75,SSW,194,5.8,8.7,57,0.00,,OVC250,0.04,VWS V14.01,2013-05-10 20:01:00,
2013-05-10 16:06:00,71.4,55.9,29.75,South,170,3.6,10.1,58,0.00,,OVC250,0.04,VWS V14.01,2013-05-10 20:06:00,
2013-05-10 16:11:00,71.6,56.1,29.75,SSW,202,4.9,7.6,58,0.00,,OVC250,0.04,VWS V14.01,2013-05-10 20:11:00,
2013-05-10 16:16:00,71.2,54.8,29.75,SSW,207,5.4,8.1,56,0.00,,OVC250,0.04,VWS V14.01,2013-05-10 20:16:00,
2013-05-10 16:21:00,70.9,54.9,29.72,South,173,8.3,8.3,57,0.00,,OVC250,0.04,VWS V14.01,2013-05-10 20:21:00,
2013-05-10 16:26:00,70.3,55.3,29.72,SSW,208,3.1,8.1,59,0.00,,OVC250,0.04,VWS V14.01,2013-05-10 20:26:00,
2013-05-10 16:31:00,69.8,54.8,29.72,SSW,212,4.9,8.7,59,0.00,,OVC250,0.04,VWS V14.01,2013-05-10 20:31:00,
2013-05-10 16:36:00,69.4,55.0,29.75,SW,216,7.2,8.7,60,0.00,,,0.04,VWS V14.01,2013-05-10 20:36:00,
2013-05-10 16:41:00,69.3,55.2,29.75,South,191,15.0,15.4,61,0.00,,,0.04,VWS V14.01,2013-05-10 20:41:00,
2013-05-10 16:46:00,69.1,55.5,29.75,SSW,206,7.6,12.8,62,0.00,,,0.04,VWS V14.01,2013-05-10 20:46:00,
2013-05-10 16:51:00,68.9,55.8,29.75,South,177,7.6,12.3,63,0.00,,,0.04,VWS V14.01,2013-05-10 20:51:00,
2013-05-10 16:56:00,68.7,55.6,29.75,South,173,4.9,8.3,63,0.00,,,0.04,VWS V14.01,2013-05-10 20:56:00,
2013-05-10 17:01:00,67.8,55.6,29.75,SW,216,5.4,9.6,65,0.00,,,0.04,VWS V14.01,2013-05-10 21:01:00,
2013-05-10 17:06:00,67.5,56.1,29.75,SSW,207,5.8,6.3,67,0.00,,,0.04,VWS V14.01,2013-05-10 21:06:00,
2013-05-10 17:11:00,67.1,56.6,29.75,SSW,195,4.0,6.3,69,0.00,,,0.04,VWS V14.01,2013-05-10 21:11:00,
2013-05-10 17:16:00,66.9,56.8,29.75,SSW,200,5.4,5.4,70,0.00,,,0.04,VWS V14.01,2013-05-10 21:16:00,
2013-05-10 17:21:00,66.7,57.0,29.75,South,176,4.0,5.4,71,0.04,,,0.08,VWS V14.01,2013-05-10 21:21:00,
2013-05-10 17:26:00,66.0,57.1,29.75,South,180,4.0,13.2,73,0.04,,,0.08,VWS V14.01,2013-05-10 21:26:00,
2013-05-10 17:31:00,65.3,57.9,29.75,South,174,3.1,4.0,77,0.04,,,0.08,VWS V14.01,2013-05-10 21:31:00,
2013-05-10 17:36:00,64.9,58.3,29.72,SSW,199,5.4,5.8,79,0.04,,OVC200,0.08,VWS V14.01,2013-05-10 21:36:00,
2013-05-10 17:41:00,64.4,58.1,29.72,WSW,237,8.7,8.7,80,0.08,,OVC200,0.12,VWS V14.01,2013-05-10 21:41:00,
2013-05-10 17:47:00,64.0,58.1,29.72,SW,225,5.8,6.3,81,0.08,,OVC200,0.12,VWS V14.01,2013-05-10 21:47:00,
2013-05-10 17:52:00,63.9,58.6,29.75,SW,215,3.6,3.6,83,0.12,,OVC200,0.16,VWS V14.01,2013-05-10 21:52:00,
2013-05-10 17:57:00,63.9,59.3,29.75,SW,231,3.1,3.1,85,0.16,,OVC200,0.20,VWS V14.01,2013-05-10 21:57:00,
2013-05-10 17:58:00,63.7,59.1,29.75,SSW,204,5.8,6.3,85,0.16,,OVC200,0.20,VWS V14.01,2013-05-10 21:58:00,
2013-05-10 17:59:00,63.5,59.2,29.75,WSW,245,5.8,6.3,86,0.24,,OVC200,0.28,VWS V14.01,2013-05-10 21:59:00,
2013-05-10 18:01:00,63.1,59.2,29.75,NNE,20,5.8,6.3,87,0.31,,OVC200,0.35,VWS V14.01,2013-05-10 22:01:00,
2013-05-10 18:04:00,62.4,59.1,29.75,WSW,249,4.0,13.2,89,0.35,,OVC200,0.39,VWS V14.01,2013-05-10 22:04:00,
2013-05-10 18:09:00,61.5,58.6,29.75,SSW,208,7.6,13.2,90,0.39,,OVC200,0.43,VWS V14.01,2013-05-10 22:09:00,
2013-05-10 18:14:00,61.9,59.5,29.75,WSW,250,3.6,4.5,92,0.39,,OVC200,0.43,VWS V14.01,2013-05-10 22:14:00,
2013-05-10 18:19:00,61.9,60.1,29.75,SW,221,4.0,5.8,94,0.39,,OVC200,0.43,VWS V14.01,2013-05-10 22:19:00,
2013-05-10 18:24:00,61.9,60.4,29.75,South,176,0.0,4.9,95,0.35,,OVC200,0.43,VWS V14.01,2013-05-10 22:24:00,
2013-05-10 18:29:00,62.1,60.9,29.75,SW,216,3.6,4.9,96,0.35,,OVC200,0.43,VWS V14.01,2013-05-10 22:29:00,
2013-05-10 18:34:00,61.9,61.0,29.75,SSW,211,3.6,3.6,97,0.35,,OVC200,0.43,VWS V14.01,2013-05-10 22:34:00,
2013-05-10 18:39:00,61.9,61.0,29.75,West,272,3.1,4.0,97,0.35,,OVC200,0.43,VWS V14.01,2013-05-10 22:39:00,
2013-05-10 18:44:00,61.9,61.3,29.75,SW,236,3.1,3.6,98,0.31,,OVC200,0.43,VWS V14.01,2013-05-10 22:44:00,
2013-05-10 18:49:00,61.9,61.3,29.75,SW,220,4.0,4.9,98,0.31,,OVC200,0.43,VWS V14.01,2013-05-10 22:49:00,
2013-05-10 18:54:00,62.1,61.5,29.75,WSW,257,5.8,5.8,98,0.28,,OVC200,0.43,VWS V14.01,2013-05-10 22:54:00,
2013-05-10 18:59:00,61.9,61.3,29.75,South,185,4.9,6.3,98,0.28,,OVC200,0.43,VWS V14.01,2013-05-10 22:59:00,
2013-05-10 19:04:00,61.9,61.3,29.75,SSW,204,4.9,6.3,98,0.08,,OVC180,0.43,VWS V14.01,2013-05-10 23:04:00,
2013-05-10 19:09:00,61.9,61.3,29.75,South,183,4.0,5.4,98,0.00,,OVC180,0.43,VWS V14.01,2013-05-10 23:09:00,
2013-05-10 19:14:00,62.1,61.5,29.75,South,189,3.6,4.0,98,0.00,,OVC180,0.43,VWS V14.01,2013-05-10 23:14:00,
2013-05-10 19:19:00,62.1,61.5,29.75,South,176,3.6,4.5,98,0.00,,OVC180,0.43,VWS V14.01,2013-05-10 23:19:00,
2013-05-10 19:24:00,62.1,61.5,29.72,South,183,4.0,5.4,98,0.00,,OVC180,0.43,VWS V14.01,2013-05-10 23:24:00,
2013-05-10 19:29:00,62.1,61.5,29.72,SW,215,5.8,8.3,98,0.04,,OVC180,0.47,VWS V14.01,2013-05-10 23:29:00,
2013-05-10 19:34:00,62.1,61.5,29.72,SW,218,8.3,9.2,98,0.04,,OVC180,0.47,VWS V14.01,2013-05-10 23:34:00,
2013-05-10 19:39:00,61.9,61.3,29.72,SSW,208,8.1,13.2,98,0.04,,OVC180,0.47,VWS V14.01,2013-05-10 23:39:00,
2013-05-10 19:44:00,61.7,61.1,29.72,SSW,203,10.1,12.8,98,0.04,,OVC180,0.47,VWS V14.01,2013-05-10 23:44:00,
2013-05-10 19:49:00,61.3,60.8,29.72,SSW,206,12.3,12.3,98,0.04,,OVC180,0.47,VWS V14.01,2013-05-10 23:49:00,
2013-05-10 19:54:00,61.2,60.6,29.72,SSW,204,10.1,11.9,98,0.04,,OVC180,0.47,VWS V14.01,2013-05-10 23:54:00,
2013-05-10 19:59:00,61.0,60.1,29.72,SW,214,12.3,12.8,97,0.04,,OVC180,0.47,VWS V14.01,2013-05-10 23:59:00,
2013-05-10 20:04:00,60.6,59.8,29.72,SW,224,11.0,13.2,97,0.04,,-RA,0.47,VWS V14.01,2013-05-11 00:04:00,
2013-05-10 20:09:00,60.6,59.8,29.72,WSW,255,7.6,13.2,97,0.04,,-RA,0.47,VWS V14.01,2013-05-11 00:09:00,
2013-05-10 20:14:00,60.4,59.6,29.72,West,272,6.3,15.4,97,0.04,,-RA,0.47,VWS V14.01,2013-05-11 00:14:00,
2013-05-10 20:19:00,60.3,59.4,29.72,SSW,193,8.7,15.4,97,0.04,,-RA,0.47,VWS V14.01,2013-05-11 00:19:00,
2013-05-10 20:24:00,60.1,59.2,29.72,SSW,208,10.5,14.5,97,0.04,,-RA,0.47,VWS V14.01,2013-05-11 00:24:00,
2013-05-10 20:29:00,59.9,59.3,29.72,SW,224,11.0,14.5,98,0.04,,-RA,0.47,VWS V14.01,2013-05-11 00:29:00,
2013-05-10 20:34:00,59.7,59.2,29.72,SSW,204,18.8,18.8,98,0.00,,-RA,0.47,VWS V14.01,2013-05-11 00:34:00,
2013-05-10 20:39:00,59.7,59.2,29.72,SSW,206,8.1,16.8,98,0.00,,-RA,0.47,VWS V14.01,2013-05-11 00:39:00,
2013-05-10 20:44:00,59.5,59.0,29.72,SW,227,11.9,12.8,98,0.00,,-RA,0.47,VWS V14.01,2013-05-11 00:44:00,
2013-05-10 20:49:00,59.5,59.0,29.72,SW,216,6.3,13.2,98,0.00,,-RA,0.47,VWS V14.01,2013-05-11 00:49:00,
2013-05-10 20:55:00,59.4,58.8,29.72,SW,233,8.7,12.3,98,0.00,,-RA,0.47,VWS V14.01,2013-05-11 00:55:00,
2013-05-10 21:00:00,59.4,58.8,29.72,SW,233,13.2,13.2,98,0.00,,-RA,0.47,VWS V14.01,2013-05-11 01:00:00,
2013-05-10 21:05:00,59.4,58.8,29.72,SSW,209,8.3,11.0,98,0.00,,-RA,0.47,VWS V14.01,2013-05-11 01:05:00,
2013-05-10 21:10:00,59.4,58.8,29.72,SW,218,10.5,11.0,98,0.00,,-RA,0.47,VWS V14.01,2013-05-11 01:10:00,
2013-05-10 21:15:00,59.4,58.8,29.72,WSW,240,10.5,10.5,98,0.00,,-RA,0.47,VWS V14.01,2013-05-11 01:15:00,
2013-05-10 21:20:00,59.4,58.8,29.72,SW,222,10.1,15.0,98,0.00,,-RA,0.47,VWS V14.01,2013-05-11 01:20:00,
2013-05-10 21:25:00,59.2,58.6,29.72,SW,231,11.0,11.0,98,0.00,,-RA,0.47,VWS V14.01,2013-05-11 01:25:00,
2013-05-10 21:30:00,59.2,58.6,29.72,SW,214,3.6,13.6,98,0.00,,-RA,0.47,VWS V14.01,2013-05-11 01:30:00,
2013-05-10 21:35:00,59.2,58.6,29.72,SSW,213,6.3,12.3,98,0.00,,-RA,0.47,VWS V14.01,2013-05-11 01:35:00,
2013-05-10 21:40:00,59.2,58.6,29.69,SW,227,3.6,11.0,98,0.00,,-RA,0.47,VWS V14.01,2013-05-11 01:40:00,
2013-05-10 21:45:00,59.2,58.6,29.69,SSW,199,10.1,12.8,98,0.00,,-RA,0.47,VWS V14.01,2013-05-11 01:45:00,
2013-05-10 21:50:00,59.2,58.6,29.69,SSW,202,5.8,12.8,98,0.04,,-RA,0.51,VWS V14.01,2013-05-11 01:50:00,
2013-05-10 21:55:00,59.2,58.6,29.72,SSW,197,8.3,8.7,98,0.04,,-RA,0.51,VWS V14.01,2013-05-11 01:55:00,
2013-05-10 22:00:00,59.2,58.6,29.72,SW,218,5.4,9.6,98,0.04,,-RA,0.51,VWS V14.01,2013-05-11 02:00:00,
2013-05-10 22:05:00,59.0,58.4,29.72,SW,214,8.3,12.8,98,0.04,,-RA,0.51,VWS V14.01,2013-05-11 02:05:00,
2013-05-10 22:10:00,59.0,58.4,29.72,SW,219,3.6,9.6,98,0.04,,-RA,0.51,VWS V14.01,2013-05-11 02:10:00,
2013-05-10 22:15:00,58.8,58.3,29.72,SW,215,4.0,6.3,98,0.04,,-RA,0.51,VWS V14.01,2013-05-11 02:15:00,
2013-05-10 22:20:00,58.8,58.3,29.72,SW,228,5.4,5.4,98,0.04,,-RA,0.51,VWS V14.01,2013-05-11 02:20:00,
2013-05-10 22:25:00,58.8,58.3,29.72,SW,214,4.0,4.9,98,0.04,,-RA,0.51,VWS V14.01,2013-05-11 02:25:00,
2013-05-10 22:30:00,58.8,58.3,29.72,SW,220,3.1,5.4,98,0.04,,-RA,0.51,VWS V14.01,2013-05-11 02:30:00,
2013-05-10 22:35:00,58.8,58.3,29.72,SSW,208,3.6,6.3,98,0.04,,-RA,0.51,VWS V14.01,2013-05-11 02:35:00,
2013-05-10 22:40:00,58.8,58.3,29.72,SW,221,5.8,6.3,98,0.04,,-RA,0.51,VWS V14.01,2013-05-11 02:40:00,
2013-05-10 22:45:00,58.6,58.1,29.72,WSW,240,4.9,7.6,98,0.04,,-RA,0.51,VWS V14.01,2013-05-11 02:45:00,
2013-05-10 22:50:00,58.6,58.1,29.72,SW,235,3.6,7.6,98,0.00,,-RA,0.51,VWS V14.01,2013-05-11 02:50:00,
2013-05-10 22:55:00,58.6,58.1,29.72,South,180,3.6,6.3,98,0.00,,-RA,0.51,VWS V14.01,2013-05-11 02:55:00,
2013-05-10 23:00:00,58.5,57.9,29.72,SSW,194,2.7,4.9,98,0.04,,-RA,0.55,VWS V14.01,2013-05-11 03:00:00,
2013-05-10 23:05:00,58.5,57.9,29.72,South,191,3.6,6.3,98,0.04,,-RA,0.55,VWS V14.01,2013-05-11 03:05:00,
2013-05-10 23:10:00,58.5,57.9,29.69,SSE,167,3.1,4.0,98,0.04,,-RA,0.55,VWS V14.01,2013-05-11 03:10:00,
2013-05-10 23:15:00,58.5,57.9,29.69,South,172,4.9,5.4,98,0.04,,-RA,0.55,VWS V14.01,2013-05-11 03:15:00,
2013-05-10 23:20:00,58.5,57.9,29.69,SW,221,5.8,6.3,98,0.04,,-RA,0.55,VWS V14.01,2013-05-11 03:20:00,
2013-05-10 23:25:00,58.6,58.1,29.69,SSW,203,3.6,8.1,98,0.04,,-RA,0.55,VWS V14.01,2013-05-11 03:25:00,
2013-05-10 23:30:00,58.6,58.1,29.69,South,170,5.8,7.2,98,0.04,,-RA,0.55,VWS V14.01,2013-05-11 03:30:00,
2013-05-10 23:35:00,58.6,58.1,29.69,SSW,208,5.8,7.6,98,0.04,,-RA,0.55,VWS V14.01,2013-05-11 03:35:00,
2013-05-10 23:40:00,58.6,58.1,29.69,SSW,207,8.3,8.3,98,0.04,,-RA,0.55,VWS V14.01,2013-05-11 03:40:00,
2013-05-10 23:45:00,58.6,58.1,29.69,SSW,200,7.2,8.3,98,0.04,,-RA,0.55,VWS V14.01,2013-05-11 03:45:00,
2013-05-10 23:50:00,58.6,58.1,29.69,South,174,3.6,9.2,98,0.04,,-RA,0.55,VWS V14.01,2013-05-11 03:50:00,
2013-05-10 23:55:00,58.6,58.1,29.69,South,186,4.0,8.1,98,0.04,,-RA,0.55,VWS V14.01,2013-05-11 03:55:00,